sensor_id;sensor_type;location;lat;lon;timestamp;P1;durP1;ratioP1;P2;durP2;ratioP2
53765;SDS011;39682;51.490;7.310;2023-05-07T00:01:02;14.65;;;12.88;;
53765;SDS011;39682;51.490;7.310;2023-05-07T00:03:30;16.50;;;12.32;;
53765;SDS011;39682;51.490;7.310;2023-05-07T00:05:57;14.05;;;12.48;;
53765;SDS011;39682;51.490;7.310;2023-05-07T00:08:23;24.02;;;15.30;;
53765;SDS011;39682;51.490;7.310;2023-05-07T00:10:49;17.42;;;13.00;;
53765;SDS011;39682;51.490;7.310;2023-05-07T00:13:15;16.95;;;12.98;;
53765;SDS011;39682;51.490;7.310;2023-05-07T00:15:41;13.43;;;11.80;;
53765;SDS011;39682;51.490;7.310;2023-05-07T00:18:07;15.88;;;12.77;;
53765;SDS011;39682;51.490;7.310;2023-05-07T00:20:33;15.00;;;12.40;;
53765;SDS011;39682;51.490;7.310;2023-05-07T00:22:59;15.00;;;12.15;;
53765;SDS011;39682;51.490;7.310;2023-05-07T00:25:25;17.88;;;12.95;;
53765;SDS011;39682;51.490;7.310;2023-05-07T00:27:51;15.00;;;12.13;;
53765;SDS011;39682;51.490;7.310;2023-05-07T00:30:17;13.88;;;11.93;;
53765;SDS011;39682;51.490;7.310;2023-05-07T00:32:43;14.48;;;11.80;;
53765;SDS011;39682;51.490;7.310;2023-05-07T00:35:13;18.38;;;13.35;;
53765;SDS011;39682;51.490;7.310;2023-05-07T00:37:39;16.08;;;12.98;;
53765;SDS011;39682;51.490;7.310;2023-05-07T00:40:06;14.55;;;12.95;;
53765;SDS011;39682;51.490;7.310;2023-05-07T00:42:33;14.82;;;12.63;;
53765;SDS011;39682;51.490;7.310;2023-05-07T00:44:59;18.08;;;12.75;;
53765;SDS011;39682;51.490;7.310;2023-05-07T00:47:25;15.20;;;12.02;;
53765;SDS011;39682;51.490;7.310;2023-05-07T00:49:51;16.05;;;11.50;;
53765;SDS011;39682;51.490;7.310;2023-05-07T00:52:17;14.75;;;13.10;;
53765;SDS011;39682;51.490;7.310;2023-05-07T00:54:45;16.00;;;12.35;;
53765;SDS011;39682;51.490;7.310;2023-05-07T00:57:11;16.23;;;12.35;;
53765;SDS011;39682;51.490;7.310;2023-05-07T00:59:37;13.05;;;11.45;;
53765;SDS011;39682;51.490;7.310;2023-05-07T01:02:05;14.45;;;12.32;;
53765;SDS011;39682;51.490;7.310;2023-05-07T01:04:31;15.35;;;11.82;;
53765;SDS011;39682;51.490;7.310;2023-05-07T01:06:57;15.35;;;11.63;;
53765;SDS011;39682;51.490;7.310;2023-05-07T01:09:24;13.48;;;12.05;;
53765;SDS011;39682;51.490;7.310;2023-05-07T01:11:50;15.40;;;13.13;;
53765;SDS011;39682;51.490;7.310;2023-05-07T01:14:17;15.02;;;12.95;;
53765;SDS011;39682;51.490;7.310;2023-05-07T01:16:44;14.65;;;12.73;;
53765;SDS011;39682;51.490;7.310;2023-05-07T01:19:11;18.17;;;13.23;;
53765;SDS011;39682;51.490;7.310;2023-05-07T01:21:41;17.27;;;13.82;;
53765;SDS011;39682;51.490;7.310;2023-05-07T01:24:10;19.25;;;14.35;;
53765;SDS011;39682;51.490;7.310;2023-05-07T01:26:37;19.33;;;15.63;;
53765;SDS011;39682;51.490;7.310;2023-05-07T01:29:03;16.92;;;14.68;;
53765;SDS011;39682;51.490;7.310;2023-05-07T01:31:29;20.42;;;15.52;;
53765;SDS011;39682;51.490;7.310;2023-05-07T01:33:55;19.92;;;14.98;;
53765;SDS011;39682;51.490;7.310;2023-05-07T01:36:22;19.38;;;15.52;;
53765;SDS011;39682;51.490;7.310;2023-05-07T01:38:50;18.27;;;15.07;;
53765;SDS011;39682;51.490;7.310;2023-05-07T01:41:17;17.90;;;14.00;;
53765;SDS011;39682;51.490;7.310;2023-05-07T01:43:43;18.25;;;14.35;;
53765;SDS011;39682;51.490;7.310;2023-05-07T01:46:09;18.45;;;14.75;;
53765;SDS011;39682;51.490;7.310;2023-05-07T01:48:36;19.98;;;15.35;;
53765;SDS011;39682;51.490;7.310;2023-05-07T01:51:02;16.33;;;14.25;;
53765;SDS011;39682;51.490;7.310;2023-05-07T01:53:30;18.95;;;14.73;;
53765;SDS011;39682;51.490;7.310;2023-05-07T01:56:01;19.80;;;14.95;;
53765;SDS011;39682;51.490;7.310;2023-05-07T01:58:26;19.38;;;15.27;;
53765;SDS011;39682;51.490;7.310;2023-05-07T02:00:52;21.02;;;15.00;;
53765;SDS011;39682;51.490;7.310;2023-05-07T02:03:18;21.25;;;16.13;;
53765;SDS011;39682;51.490;7.310;2023-05-07T02:05:44;19.27;;;15.40;;
53765;SDS011;39682;51.490;7.310;2023-05-07T02:08:10;18.00;;;14.65;;
53765;SDS011;39682;51.490;7.310;2023-05-07T02:10:36;16.20;;;13.77;;
53765;SDS011;39682;51.490;7.310;2023-05-07T02:13:02;19.75;;;15.60;;
53765;SDS011;39682;51.490;7.310;2023-05-07T02:15:28;18.08;;;14.48;;
53765;SDS011;39682;51.490;7.310;2023-05-07T02:17:58;20.08;;;15.68;;
53765;SDS011;39682;51.490;7.310;2023-05-07T02:20:24;17.67;;;14.80;;
53765;SDS011;39682;51.490;7.310;2023-05-07T02:22:50;17.15;;;14.88;;
53765;SDS011;39682;51.490;7.310;2023-05-07T02:25:16;17.00;;;15.13;;
53765;SDS011;39682;51.490;7.310;2023-05-07T02:27:42;21.02;;;16.08;;
53765;SDS011;39682;51.490;7.310;2023-05-07T02:30:08;21.48;;;15.32;;
53765;SDS011;39682;51.490;7.310;2023-05-07T02:32:34;17.33;;;14.10;;
53765;SDS011;39682;51.490;7.310;2023-05-07T02:35:00;21.83;;;15.07;;
53765;SDS011;39682;51.490;7.310;2023-05-07T02:37:26;17.67;;;14.95;;
53765;SDS011;39682;51.490;7.310;2023-05-07T02:39:52;20.23;;;14.63;;
53765;SDS011;39682;51.490;7.310;2023-05-07T02:42:18;22.35;;;16.33;;
53765;SDS011;39682;51.490;7.310;2023-05-07T02:44:44;18.67;;;14.85;;
53765;SDS011;39682;51.490;7.310;2023-05-07T02:47:10;19.20;;;14.68;;
53765;SDS011;39682;51.490;7.310;2023-05-07T02:49:38;18.20;;;15.10;;
53765;SDS011;39682;51.490;7.310;2023-05-07T02:52:04;18.42;;;15.50;;
53765;SDS011;39682;51.490;7.310;2023-05-07T02:54:30;18.23;;;14.43;;
53765;SDS011;39682;51.490;7.310;2023-05-07T02:56:56;20.75;;;14.80;;
53765;SDS011;39682;51.490;7.310;2023-05-07T02:59:23;20.25;;;15.75;;
53765;SDS011;39682;51.490;7.310;2023-05-07T03:01:50;19.17;;;14.88;;
53765;SDS011;39682;51.490;7.310;2023-05-07T03:04:16;20.42;;;15.32;;
53765;SDS011;39682;51.490;7.310;2023-05-07T03:06:42;22.08;;;15.82;;
53765;SDS011;39682;51.490;7.310;2023-05-07T03:09:07;16.67;;;14.52;;
53765;SDS011;39682;51.490;7.310;2023-05-07T03:11:33;22.70;;;16.27;;
53765;SDS011;39682;51.490;7.310;2023-05-07T03:14:00;18.65;;;15.13;;
53765;SDS011;39682;51.490;7.310;2023-05-07T03:16:26;24.95;;;17.10;;
53765;SDS011;39682;51.490;7.310;2023-05-07T03:18:52;23.13;;;17.13;;
53765;SDS011;39682;51.490;7.310;2023-05-07T03:21:18;21.05;;;16.60;;
53765;SDS011;39682;51.490;7.310;2023-05-07T03:23:44;22.58;;;16.58;;
53765;SDS011;39682;51.490;7.310;2023-05-07T03:26:10;19.38;;;15.77;;
53765;SDS011;39682;51.490;7.310;2023-05-07T03:28:36;17.83;;;15.48;;
53765;SDS011;39682;51.490;7.310;2023-05-07T03:31:02;17.98;;;15.65;;
53765;SDS011;39682;51.490;7.310;2023-05-07T03:33:28;19.33;;;16.88;;
53765;SDS011;39682;51.490;7.310;2023-05-07T03:35:54;19.80;;;16.38;;
53765;SDS011;39682;51.490;7.310;2023-05-07T03:38:20;20.98;;;17.05;;
53765;SDS011;39682;51.490;7.310;2023-05-07T03:40:46;23.17;;;17.30;;
53765;SDS011;39682;51.490;7.310;2023-05-07T03:43:12;21.25;;;17.42;;
53765;SDS011;39682;51.490;7.310;2023-05-07T03:45:38;22.25;;;17.90;;
53765;SDS011;39682;51.490;7.310;2023-05-07T03:48:04;21.30;;;16.90;;
53765;SDS011;39682;51.490;7.310;2023-05-07T03:50:30;23.30;;;17.08;;
53765;SDS011;39682;51.490;7.310;2023-05-07T03:52:56;20.65;;;16.85;;
53765;SDS011;39682;51.490;7.310;2023-05-07T03:55:22;22.67;;;17.52;;
53765;SDS011;39682;51.490;7.310;2023-05-07T03:57:48;21.77;;;17.38;;
53765;SDS011;39682;51.490;7.310;2023-05-07T04:00:14;23.20;;;16.80;;
53765;SDS011;39682;51.490;7.310;2023-05-07T04:02:40;22.35;;;17.23;;
53765;SDS011;39682;51.490;7.310;2023-05-07T04:05:06;22.83;;;16.95;;
53765;SDS011;39682;51.490;7.310;2023-05-07T04:07:33;20.65;;;16.17;;
53765;SDS011;39682;51.490;7.310;2023-05-07T04:09:59;23.77;;;17.67;;
53765;SDS011;39682;51.490;7.310;2023-05-07T04:12:24;23.52;;;18.08;;
53765;SDS011;39682;51.490;7.310;2023-05-07T04:14:50;26.55;;;17.67;;
53765;SDS011;39682;51.490;7.310;2023-05-07T04:17:16;23.45;;;19.02;;
53765;SDS011;39682;51.490;7.310;2023-05-07T04:19:42;23.60;;;18.17;;
53765;SDS011;39682;51.490;7.310;2023-05-07T04:22:10;24.15;;;18.67;;
53765;SDS011;39682;51.490;7.310;2023-05-07T04:24:36;22.10;;;17.27;;
53765;SDS011;39682;51.490;7.310;2023-05-07T04:27:02;22.60;;;17.92;;
53765;SDS011;39682;51.490;7.310;2023-05-07T04:29:29;20.35;;;16.05;;
53765;SDS011;39682;51.490;7.310;2023-05-07T04:31:55;21.45;;;16.80;;
53765;SDS011;39682;51.490;7.310;2023-05-07T04:34:21;21.25;;;17.20;;
53765;SDS011;39682;51.490;7.310;2023-05-07T04:36:47;20.35;;;14.90;;
53765;SDS011;39682;51.490;7.310;2023-05-07T04:39:13;17.90;;;15.45;;
53765;SDS011;39682;51.490;7.310;2023-05-07T04:41:39;19.88;;;14.98;;
53765;SDS011;39682;51.490;7.310;2023-05-07T04:44:05;21.65;;;14.98;;
53765;SDS011;39682;51.490;7.310;2023-05-07T04:46:31;19.52;;;14.50;;
53765;SDS011;39682;51.490;7.310;2023-05-07T04:48:57;18.83;;;14.25;;
53765;SDS011;39682;51.490;7.310;2023-05-07T04:51:23;17.15;;;13.95;;
53765;SDS011;39682;51.490;7.310;2023-05-07T04:53:50;19.95;;;14.25;;
53765;SDS011;39682;51.490;7.310;2023-05-07T04:56:16;14.95;;;13.35;;
53765;SDS011;39682;51.490;7.310;2023-05-07T04:58:42;15.05;;;13.38;;
53765;SDS011;39682;51.490;7.310;2023-05-07T05:01:08;15.82;;;12.90;;
53765;SDS011;39682;51.490;7.310;2023-05-07T05:03:34;14.50;;;12.10;;
53765;SDS011;39682;51.490;7.310;2023-05-07T05:06:00;14.43;;;11.15;;
53765;SDS011;39682;51.490;7.310;2023-05-07T05:08:26;13.32;;;11.73;;
53765;SDS011;39682;51.490;7.310;2023-05-07T05:10:52;14.77;;;11.25;;
53765;SDS011;39682;51.490;7.310;2023-05-07T05:13:17;12.65;;;11.20;;
53765;SDS011;39682;51.490;7.310;2023-05-07T05:15:43;11.75;;;10.32;;
53765;SDS011;39682;51.490;7.310;2023-05-07T05:18:10;12.98;;;10.00;;
53765;SDS011;39682;51.490;7.310;2023-05-07T05:20:36;13.77;;;10.55;;
53765;SDS011;39682;51.490;7.310;2023-05-07T05:23:02;11.05;;;9.40;;
53765;SDS011;39682;51.490;7.310;2023-05-07T05:25:28;10.27;;;8.80;;
53765;SDS011;39682;51.490;7.310;2023-05-07T05:27:54;10.73;;;9.07;;
53765;SDS011;39682;51.490;7.310;2023-05-07T05:30:20;11.27;;;8.90;;
53765;SDS011;39682;51.490;7.310;2023-05-07T05:32:46;11.90;;;9.60;;
53765;SDS011;39682;51.490;7.310;2023-05-07T05:35:12;9.43;;;8.43;;
53765;SDS011;39682;51.490;7.310;2023-05-07T05:37:38;10.30;;;7.78;;
53765;SDS011;39682;51.490;7.310;2023-05-07T05:40:04;9.88;;;7.38;;
53765;SDS011;39682;51.490;7.310;2023-05-07T05:42:31;8.55;;;7.07;;
53765;SDS011;39682;51.490;7.310;2023-05-07T05:44:57;8.60;;;7.32;;
53765;SDS011;39682;51.490;7.310;2023-05-07T05:47:22;7.47;;;6.40;;
53765;SDS011;39682;51.490;7.310;2023-05-07T05:49:48;8.20;;;6.93;;
53765;SDS011;39682;51.490;7.310;2023-05-07T05:52:14;6.57;;;5.82;;
53765;SDS011;39682;51.490;7.310;2023-05-07T05:54:41;7.88;;;6.13;;
53765;SDS011;39682;51.490;7.310;2023-05-07T05:57:07;7.97;;;6.18;;
53765;SDS011;39682;51.490;7.310;2023-05-07T05:59:33;7.13;;;5.80;;
53765;SDS011;39682;51.490;7.310;2023-05-07T06:01:59;8.00;;;6.30;;
53765;SDS011;39682;51.490;7.310;2023-05-07T06:04:25;7.25;;;5.55;;
53765;SDS011;39682;51.490;7.310;2023-05-07T06:06:51;7.95;;;5.30;;
53765;SDS011;39682;51.490;7.310;2023-05-07T06:09:17;6.13;;;4.85;;
53765;SDS011;39682;51.490;7.310;2023-05-07T06:11:43;7.18;;;4.75;;
53765;SDS011;39682;51.490;7.310;2023-05-07T06:14:09;7.82;;;5.45;;
53765;SDS011;39682;51.490;7.310;2023-05-07T06:16:35;5.32;;;4.63;;
53765;SDS011;39682;51.490;7.310;2023-05-07T06:19:02;5.15;;;4.60;;
53765;SDS011;39682;51.490;7.310;2023-05-07T06:21:28;5.60;;;4.70;;
53765;SDS011;39682;51.490;7.310;2023-05-07T06:23:55;5.82;;;4.40;;
53765;SDS011;39682;51.490;7.310;2023-05-07T06:26:21;6.78;;;4.43;;
53765;SDS011;39682;51.490;7.310;2023-05-07T06:28:47;4.65;;;3.85;;
53765;SDS011;39682;51.490;7.310;2023-05-07T06:31:19;4.82;;;4.05;;
53765;SDS011;39682;51.490;7.310;2023-05-07T06:33:45;6.05;;;3.53;;
53765;SDS011;39682;51.490;7.310;2023-05-07T06:36:11;6.40;;;3.80;;
53765;SDS011;39682;51.490;7.310;2023-05-07T06:38:37;4.22;;;3.75;;
53765;SDS011;39682;51.490;7.310;2023-05-07T06:41:03;5.55;;;3.95;;
53765;SDS011;39682;51.490;7.310;2023-05-07T06:43:29;5.35;;;4.03;;
53765;SDS011;39682;51.490;7.310;2023-05-07T06:45:55;6.93;;;3.58;;
53765;SDS011;39682;51.490;7.310;2023-05-07T06:48:21;5.68;;;4.30;;
53765;SDS011;39682;51.490;7.310;2023-05-07T06:50:47;5.68;;;3.80;;
53765;SDS011;39682;51.490;7.310;2023-05-07T06:53:13;4.93;;;3.65;;
53765;SDS011;39682;51.490;7.310;2023-05-07T06:55:39;5.88;;;3.78;;
53765;SDS011;39682;51.490;7.310;2023-05-07T06:58:06;6.18;;;4.07;;
53765;SDS011;39682;51.490;7.310;2023-05-07T07:00:32;4.57;;;3.10;;
53765;SDS011;39682;51.490;7.310;2023-05-07T07:02:58;6.03;;;3.17;;
53765;SDS011;39682;51.490;7.310;2023-05-07T07:05:25;3.70;;;3.13;;
53765;SDS011;39682;51.490;7.310;2023-05-07T07:07:51;4.20;;;3.05;;
53765;SDS011;39682;51.490;7.310;2023-05-07T07:10:20;4.85;;;3.80;;
53765;SDS011;39682;51.490;7.310;2023-05-07T07:12:46;4.68;;;3.20;;
53765;SDS011;39682;51.490;7.310;2023-05-07T07:15:13;4.57;;;3.33;;
53765;SDS011;39682;51.490;7.310;2023-05-07T07:17:39;3.80;;;3.10;;
53765;SDS011;39682;51.490;7.310;2023-05-07T07:20:05;5.43;;;3.33;;
53765;SDS011;39682;51.490;7.310;2023-05-07T07:22:31;5.53;;;3.25;;
53765;SDS011;39682;51.490;7.310;2023-05-07T07:24:57;5.80;;;3.45;;
53765;SDS011;39682;51.490;7.310;2023-05-07T07:27:23;5.75;;;3.70;;
53765;SDS011;39682;51.490;7.310;2023-05-07T07:29:49;4.75;;;3.40;;
53765;SDS011;39682;51.490;7.310;2023-05-07T07:32:15;5.50;;;3.60;;
53765;SDS011;39682;51.490;7.310;2023-05-07T07:34:41;5.93;;;3.65;;
53765;SDS011;39682;51.490;7.310;2023-05-07T07:37:07;3.63;;;2.60;;
53765;SDS011;39682;51.490;7.310;2023-05-07T07:39:33;4.45;;;3.80;;
53765;SDS011;39682;51.490;7.310;2023-05-07T07:41:59;6.15;;;3.50;;
53765;SDS011;39682;51.490;7.310;2023-05-07T07:44:25;4.22;;;3.17;;
53765;SDS011;39682;51.490;7.310;2023-05-07T07:46:51;5.80;;;3.80;;
53765;SDS011;39682;51.490;7.310;2023-05-07T07:49:17;6.10;;;3.97;;
53765;SDS011;39682;51.490;7.310;2023-05-07T07:51:43;4.63;;;3.83;;
53765;SDS011;39682;51.490;7.310;2023-05-07T07:54:09;4.45;;;3.60;;
53765;SDS011;39682;51.490;7.310;2023-05-07T07:56:38;6.03;;;3.83;;
53765;SDS011;39682;51.490;7.310;2023-05-07T07:59:04;5.20;;;3.40;;
53765;SDS011;39682;51.490;7.310;2023-05-07T08:01:30;3.92;;;3.20;;
53765;SDS011;39682;51.490;7.310;2023-05-07T08:03:56;6.00;;;3.25;;
53765;SDS011;39682;51.490;7.310;2023-05-07T08:06:23;4.25;;;2.85;;
53765;SDS011;39682;51.490;7.310;2023-05-07T08:08:50;7.10;;;3.63;;
53765;SDS011;39682;51.490;7.310;2023-05-07T08:11:17;4.10;;;3.40;;
53765;SDS011;39682;51.490;7.310;2023-05-07T08:13:43;4.05;;;3.20;;
53765;SDS011;39682;51.490;7.310;2023-05-07T08:16:10;5.03;;;3.17;;
53765;SDS011;39682;51.490;7.310;2023-05-07T08:18:36;4.03;;;3.38;;
53765;SDS011;39682;51.490;7.310;2023-05-07T08:21:02;4.35;;;3.67;;
53765;SDS011;39682;51.490;7.310;2023-05-07T08:23:28;6.22;;;3.33;;
53765;SDS011;39682;51.490;7.310;2023-05-07T08:25:54;5.25;;;3.13;;
53765;SDS011;39682;51.490;7.310;2023-05-07T08:28:20;5.15;;;3.58;;
53765;SDS011;39682;51.490;7.310;2023-05-07T08:30:46;5.13;;;3.20;;
53765;SDS011;39682;51.490;7.310;2023-05-07T08:33:12;4.70;;;3.42;;
53765;SDS011;39682;51.490;7.310;2023-05-07T08:35:38;16.05;;;4.80;;
53765;SDS011;39682;51.490;7.310;2023-05-07T08:38:04;4.47;;;3.45;;
53765;SDS011;39682;51.490;7.310;2023-05-07T08:40:31;6.30;;;4.25;;
53765;SDS011;39682;51.490;7.310;2023-05-07T08:43:01;5.35;;;3.80;;
53765;SDS011;39682;51.490;7.310;2023-05-07T08:45:27;5.68;;;4.68;;
53765;SDS011;39682;51.490;7.310;2023-05-07T08:48:01;6.05;;;4.35;;
53765;SDS011;39682;51.490;7.310;2023-05-07T08:50:27;8.67;;;4.80;;
53765;SDS011;39682;51.490;7.310;2023-05-07T08:52:53;7.03;;;5.07;;
53765;SDS011;39682;51.490;7.310;2023-05-07T08:55:21;5.10;;;4.45;;
53765;SDS011;39682;51.490;7.310;2023-05-07T08:57:47;6.00;;;4.80;;
53765;SDS011;39682;51.490;7.310;2023-05-07T09:00:13;7.38;;;5.38;;
53765;SDS011;39682;51.490;7.310;2023-05-07T09:02:39;7.65;;;5.00;;
53765;SDS011;39682;51.490;7.310;2023-05-07T09:05:05;6.97;;;5.53;;
53765;SDS011;39682;51.490;7.310;2023-05-07T09:07:32;6.82;;;5.35;;
53765;SDS011;39682;51.490;7.310;2023-05-07T09:09:58;6.25;;;5.35;;
53765;SDS011;39682;51.490;7.310;2023-05-07T09:12:24;9.45;;;6.15;;
53765;SDS011;39682;51.490;7.310;2023-05-07T09:14:50;7.40;;;6.55;;
53765;SDS011;39682;51.490;7.310;2023-05-07T09:17:16;7.53;;;5.65;;
53765;SDS011;39682;51.490;7.310;2023-05-07T09:19:43;9.60;;;5.78;;
53765;SDS011;39682;51.490;7.310;2023-05-07T09:22:10;7.05;;;5.80;;
53765;SDS011;39682;51.490;7.310;2023-05-07T09:24:36;8.32;;;5.75;;
53765;SDS011;39682;51.490;7.310;2023-05-07T09:27:06;8.02;;;6.22;;
53765;SDS011;39682;51.490;7.310;2023-05-07T09:29:33;6.35;;;4.90;;
53765;SDS011;39682;51.490;7.310;2023-05-07T09:32:02;8.77;;;5.97;;
53765;SDS011;39682;51.490;7.310;2023-05-07T09:34:29;8.25;;;5.53;;
53765;SDS011;39682;51.490;7.310;2023-05-07T09:36:55;7.40;;;5.90;;
53765;SDS011;39682;51.490;7.310;2023-05-07T09:39:22;6.32;;;5.57;;
53765;SDS011;39682;51.490;7.310;2023-05-07T09:41:48;9.88;;;6.32;;
53765;SDS011;39682;51.490;7.310;2023-05-07T09:44:16;7.72;;;6.53;;
53765;SDS011;39682;51.490;7.310;2023-05-07T09:46:42;8.35;;;6.25;;
53765;SDS011;39682;51.490;7.310;2023-05-07T09:49:18;8.23;;;6.57;;
53765;SDS011;39682;51.490;7.310;2023-05-07T09:51:47;7.53;;;5.17;;
53765;SDS011;39682;51.490;7.310;2023-05-07T09:54:14;13.23;;;5.82;;
53765;SDS011;39682;51.490;7.310;2023-05-07T09:56:41;7.70;;;5.05;;
53765;SDS011;39682;51.490;7.310;2023-05-07T09:59:08;5.70;;;4.53;;
53765;SDS011;39682;51.490;7.310;2023-05-07T10:01:36;5.90;;;4.72;;
53765;SDS011;39682;51.490;7.310;2023-05-07T10:04:02;6.75;;;4.50;;
53765;SDS011;39682;51.490;7.310;2023-05-07T10:06:33;7.10;;;5.00;;
53765;SDS011;39682;51.490;7.310;2023-05-07T10:08:59;5.60;;;3.88;;
53765;SDS011;39682;51.490;7.310;2023-05-07T10:11:26;6.28;;;3.88;;
53765;SDS011;39682;51.490;7.310;2023-05-07T10:13:52;4.78;;;4.28;;
53765;SDS011;39682;51.490;7.310;2023-05-07T10:16:18;5.05;;;4.00;;
53765;SDS011;39682;51.490;7.310;2023-05-07T10:18:45;4.60;;;3.50;;
53765;SDS011;39682;51.490;7.310;2023-05-07T10:21:21;7.20;;;4.20;;
53765;SDS011;39682;51.490;7.310;2023-05-07T10:23:49;4.65;;;3.75;;
53765;SDS011;39682;51.490;7.310;2023-05-07T10:26:17;3.33;;;3.00;;
53765;SDS011;39682;51.490;7.310;2023-05-07T10:28:44;3.03;;;2.63;;
53765;SDS011;39682;51.490;7.310;2023-05-07T10:33:41;3.90;;;3.03;;
53765;SDS011;39682;51.490;7.310;2023-05-07T10:36:08;2.55;;;2.25;;
53765;SDS011;39682;51.490;7.310;2023-05-07T10:38:34;6.18;;;2.58;;
53765;SDS011;39682;51.490;7.310;2023-05-07T10:41:00;4.38;;;2.50;;
53765;SDS011;39682;51.490;7.310;2023-05-07T10:43:36;4.47;;;2.75;;
53765;SDS011;39682;51.490;7.310;2023-05-07T10:46:17;3.88;;;2.17;;
53765;SDS011;39682;51.490;7.310;2023-05-07T10:51:33;3.40;;;2.55;;
53765;SDS011;39682;51.490;7.310;2023-05-07T10:56:35;4.70;;;3.70;;
53765;SDS011;39682;51.490;7.310;2023-05-07T11:02:02;3.88;;;3.00;;
53765;SDS011;39682;51.490;7.310;2023-05-07T11:04:29;4.53;;;2.92;;
53765;SDS011;39682;51.490;7.310;2023-05-07T11:12:16;4.85;;;3.63;;
53765;SDS011;39682;51.490;7.310;2023-05-07T11:17:09;4.53;;;4.03;;
53765;SDS011;39682;51.490;7.310;2023-05-07T11:19:50;7.38;;;3.85;;
53765;SDS011;39682;51.490;7.310;2023-05-07T11:25:14;4.90;;;3.83;;
53765;SDS011;39682;51.490;7.310;2023-05-07T11:27:42;6.03;;;4.75;;
53765;SDS011;39682;51.490;7.310;2023-05-07T11:30:09;7.63;;;5.25;;
53765;SDS011;39682;51.490;7.310;2023-05-07T11:32:35;6.05;;;5.03;;
53765;SDS011;39682;51.490;7.310;2023-05-07T11:35:01;5.18;;;4.28;;
53765;SDS011;39682;51.490;7.310;2023-05-07T11:37:27;7.15;;;5.55;;
53765;SDS011;39682;51.490;7.310;2023-05-07T11:40:04;7.80;;;6.28;;
53765;SDS011;39682;51.490;7.310;2023-05-07T11:42:35;8.77;;;5.65;;
53765;SDS011;39682;51.490;7.310;2023-05-07T11:45:02;7.82;;;4.97;;
53765;SDS011;39682;51.490;7.310;2023-05-07T11:47:31;6.88;;;5.18;;
53765;SDS011;39682;51.490;7.310;2023-05-07T11:50:01;5.93;;;5.00;;
53765;SDS011;39682;51.490;7.310;2023-05-07T11:52:28;6.72;;;5.20;;
53765;SDS011;39682;51.490;7.310;2023-05-07T11:54:55;7.93;;;5.07;;
53765;SDS011;39682;51.490;7.310;2023-05-07T11:57:21;8.63;;;6.53;;
53765;SDS011;39682;51.490;7.310;2023-05-07T11:59:48;11.35;;;6.25;;
53765;SDS011;39682;51.490;7.310;2023-05-07T12:02:18;9.82;;;6.22;;
53765;SDS011;39682;51.490;7.310;2023-05-07T12:04:44;9.10;;;6.38;;
53765;SDS011;39682;51.490;7.310;2023-05-07T12:07:13;7.35;;;5.90;;
53765;SDS011;39682;51.490;7.310;2023-05-07T12:09:39;10.18;;;7.13;;
53765;SDS011;39682;51.490;7.310;2023-05-07T12:12:06;8.95;;;6.32;;
53765;SDS011;39682;51.490;7.310;2023-05-07T12:14:32;10.55;;;7.45;;
53765;SDS011;39682;51.490;7.310;2023-05-07T12:16:58;8.32;;;6.72;;
53765;SDS011;39682;51.490;7.310;2023-05-07T12:19:27;7.22;;;6.00;;
53765;SDS011;39682;51.490;7.310;2023-05-07T12:21:53;8.55;;;6.72;;
53765;SDS011;39682;51.490;7.310;2023-05-07T12:24:19;8.23;;;7.05;;
53765;SDS011;39682;51.490;7.310;2023-05-07T12:26:46;9.50;;;6.53;;
53765;SDS011;39682;51.490;7.310;2023-05-07T12:29:12;6.68;;;4.95;;
53765;SDS011;39682;51.490;7.310;2023-05-07T12:31:40;6.75;;;5.43;;
53765;SDS011;39682;51.490;7.310;2023-05-07T12:34:06;6.07;;;5.05;;
53765;SDS011;39682;51.490;7.310;2023-05-07T12:36:39;8.43;;;5.63;;
53765;SDS011;39682;51.490;7.310;2023-05-07T12:39:06;10.63;;;5.20;;
53765;SDS011;39682;51.490;7.310;2023-05-07T12:41:35;6.60;;;5.90;;
53765;SDS011;39682;51.490;7.310;2023-05-07T12:44:03;6.72;;;5.63;;
53765;SDS011;39682;51.490;7.310;2023-05-07T12:46:30;5.90;;;4.18;;
53765;SDS011;39682;51.490;7.310;2023-05-07T12:48:56;4.50;;;3.75;;
53765;SDS011;39682;51.490;7.310;2023-05-07T12:51:22;9.75;;;5.18;;
53765;SDS011;39682;51.490;7.310;2023-05-07T12:53:48;6.72;;;5.07;;
53765;SDS011;39682;51.490;7.310;2023-05-07T12:56:15;8.82;;;5.30;;
53765;SDS011;39682;51.490;7.310;2023-05-07T12:58:41;6.55;;;5.00;;
53765;SDS011;39682;51.490;7.310;2023-05-07T13:01:07;5.78;;;4.47;;
53765;SDS011;39682;51.490;7.310;2023-05-07T13:03:35;7.53;;;4.78;;
53765;SDS011;39682;51.490;7.310;2023-05-07T13:06:08;4.45;;;3.70;;
53765;SDS011;39682;51.490;7.310;2023-05-07T13:08:36;5.40;;;4.30;;
53765;SDS011;39682;51.490;7.310;2023-05-07T13:11:02;5.22;;;4.15;;
53765;SDS011;39682;51.490;7.310;2023-05-07T13:13:29;5.45;;;4.00;;
53765;SDS011;39682;51.490;7.310;2023-05-07T13:15:55;6.25;;;4.63;;
53765;SDS011;39682;51.490;7.310;2023-05-07T13:18:21;4.80;;;3.70;;
53765;SDS011;39682;51.490;7.310;2023-05-07T13:20:47;6.03;;;4.45;;
53765;SDS011;39682;51.490;7.310;2023-05-07T13:23:13;7.38;;;4.80;;
53765;SDS011;39682;51.490;7.310;2023-05-07T13:25:39;5.93;;;3.92;;
53765;SDS011;39682;51.490;7.310;2023-05-07T13:28:05;6.38;;;5.03;;
53765;SDS011;39682;51.490;7.310;2023-05-07T13:30:31;6.43;;;5.13;;
53765;SDS011;39682;51.490;7.310;2023-05-07T13:32:57;6.32;;;4.32;;
53765;SDS011;39682;51.490;7.310;2023-05-07T13:35:23;5.15;;;3.92;;
53765;SDS011;39682;51.490;7.310;2023-05-07T13:37:49;6.60;;;4.78;;
53765;SDS011;39682;51.490;7.310;2023-05-07T13:40:17;6.82;;;3.75;;
53765;SDS011;39682;51.490;7.310;2023-05-07T13:42:43;5.13;;;4.20;;
53765;SDS011;39682;51.490;7.310;2023-05-07T13:45:09;6.47;;;4.25;;
53765;SDS011;39682;51.490;7.310;2023-05-07T13:47:35;8.15;;;4.47;;
53765;SDS011;39682;51.490;7.310;2023-05-07T13:50:01;5.07;;;3.88;;
53765;SDS011;39682;51.490;7.310;2023-05-07T13:52:27;5.97;;;4.50;;
53765;SDS011;39682;51.490;7.310;2023-05-07T13:54:53;6.15;;;4.45;;
53765;SDS011;39682;51.490;7.310;2023-05-07T13:57:20;5.45;;;3.95;;
53765;SDS011;39682;51.490;7.310;2023-05-07T13:59:46;5.57;;;4.30;;
53765;SDS011;39682;51.490;7.310;2023-05-07T14:02:11;6.03;;;4.57;;
53765;SDS011;39682;51.490;7.310;2023-05-07T14:04:38;4.53;;;4.00;;
53765;SDS011;39682;51.490;7.310;2023-05-07T14:07:04;5.00;;;3.97;;
53765;SDS011;39682;51.490;7.310;2023-05-07T14:09:30;5.10;;;3.92;;
53765;SDS011;39682;51.490;7.310;2023-05-07T14:11:56;4.10;;;2.65;;
53765;SDS011;39682;51.490;7.310;2023-05-07T14:14:22;4.15;;;3.15;;
53765;SDS011;39682;51.490;7.310;2023-05-07T14:16:48;3.85;;;2.83;;
53765;SDS011;39682;51.490;7.310;2023-05-07T14:19:14;4.93;;;2.97;;
53765;SDS011;39682;51.490;7.310;2023-05-07T14:21:39;3.80;;;2.80;;
53765;SDS011;39682;51.490;7.310;2023-05-07T14:24:06;4.78;;;2.97;;
53765;SDS011;39682;51.490;7.310;2023-05-07T14:26:32;5.13;;;3.60;;
53765;SDS011;39682;51.490;7.310;2023-05-07T14:28:58;5.88;;;3.63;;
53765;SDS011;39682;51.490;7.310;2023-05-07T14:31:25;5.63;;;3.75;;
53765;SDS011;39682;51.490;7.310;2023-05-07T14:33:51;5.32;;;3.42;;
53765;SDS011;39682;51.490;7.310;2023-05-07T14:36:17;5.90;;;3.38;;
53765;SDS011;39682;51.490;7.310;2023-05-07T14:38:48;5.65;;;3.90;;
53765;SDS011;39682;51.490;7.310;2023-05-07T14:41:13;5.03;;;4.25;;
53765;SDS011;39682;51.490;7.310;2023-05-07T14:43:39;5.55;;;4.07;;
53765;SDS011;39682;51.490;7.310;2023-05-07T14:46:06;5.60;;;4.43;;
53765;SDS011;39682;51.490;7.310;2023-05-07T14:48:32;6.78;;;4.80;;
53765;SDS011;39682;51.490;7.310;2023-05-07T14:50:58;6.03;;;5.05;;
53765;SDS011;39682;51.490;7.310;2023-05-07T14:53:24;5.22;;;4.43;;
53765;SDS011;39682;51.490;7.310;2023-05-07T14:55:50;5.63;;;4.57;;